sensor_id;sensor_type;location;lat;lon;timestamp;P1;durP1;ratioP1;P2;durP2;ratioP2
25511;SDS011;13414;44.534;18.700;2022-10-28T00:01:12;47.15;;;30.92;;
25511;SDS011;13414;44.534;18.700;2022-10-28T00:03:42;41.10;;;26.25;;
25511;SDS011;13414;44.534;18.700;2022-10-28T00:06:11;42.72;;;26.13;;
25511;SDS011;13414;44.534;18.700;2022-10-28T00:08:39;39.13;;;25.98;;
25511;SDS011;13414;44.534;18.700;2022-10-28T00:11:08;42.90;;;25.17;;
25511;SDS011;13414;44.534;18.700;2022-10-28T00:13:37;39.35;;;23.02;;
25511;SDS011;13414;44.534;18.700;2022-10-28T00:16:07;36.05;;;22.45;;
25511;SDS011;13414;44.534;18.700;2022-10-28T00:18:36;31.05;;;20.65;;
25511;SDS011;13414;44.534;18.700;2022-10-28T00:21:06;34.90;;;20.77;;
25511;SDS011;13414;44.534;18.700;2022-10-28T00:23:35;38.47;;;23.55;;
25511;SDS011;13414;44.534;18.700;2022-10-28T00:26:04;37.42;;;24.17;;
25511;SDS011;13414;44.534;18.700;2022-10-28T00:28:33;46.78;;;25.42;;
25511;SDS011;13414;44.534;18.700;2022-10-28T00:31:04;48.88;;;30.02;;
25511;SDS011;13414;44.534;18.700;2022-10-28T00:33:34;48.67;;;29.65;;
25511;SDS011;13414;44.534;18.700;2022-10-28T00:36:08;38.85;;;27.33;;
25511;SDS011;13414;44.534;18.700;2022-10-28T00:38:37;38.45;;;25.13;;
25511;SDS011;13414;44.534;18.700;2022-10-28T00:41:05;36.88;;;22.65;;
25511;SDS011;13414;44.534;18.700;2022-10-28T00:43:37;35.03;;;22.15;;
25511;SDS011;13414;44.534;18.700;2022-10-28T00:46:12;38.80;;;22.45;;
25511;SDS011;13414;44.534;18.700;2022-10-28T00:48:47;35.78;;;21.80;;
25511;SDS011;13414;44.534;18.700;2022-10-28T00:51:20;38.90;;;23.35;;
25511;SDS011;13414;44.534;18.700;2022-10-28T00:53:49;46.10;;;25.77;;
25511;SDS011;13414;44.534;18.700;2022-10-28T00:56:18;38.92;;;24.50;;
25511;SDS011;13414;44.534;18.700;2022-10-28T00:58:47;41.63;;;25.98;;
25511;SDS011;13414;44.534;18.700;2022-10-28T01:01:18;46.97;;;28.98;;
25511;SDS011;13414;44.534;18.700;2022-10-28T01:03:46;45.28;;;29.75;;
25511;SDS011;13414;44.534;18.700;2022-10-28T01:06:13;40.15;;;27.10;;
25511;SDS011;13414;44.534;18.700;2022-10-28T01:08:41;48.75;;;30.05;;
25511;SDS011;13414;44.534;18.700;2022-10-28T01:11:14;40.78;;;24.50;;
25511;SDS011;13414;44.534;18.700;2022-10-28T01:13:56;40.78;;;24.08;;
25511;SDS011;13414;44.534;18.700;2022-10-28T01:16:37;44.42;;;25.65;;
25511;SDS011;13414;44.534;18.700;2022-10-28T01:19:22;38.22;;;24.08;;
25511;SDS011;13414;44.534;18.700;2022-10-28T01:22:12;34.63;;;22.20;;
25511;SDS011;13414;44.534;18.700;2022-10-28T01:33:46;32.17;;;20.48;;
25511;SDS011;13414;44.534;18.700;2022-10-28T01:36:18;36.28;;;22.33;;
25511;SDS011;13414;44.534;18.700;2022-10-28T01:38:56;33.70;;;21.55;;
25511;SDS011;13414;44.534;18.700;2022-10-28T01:41:32;30.02;;;20.45;;
25511;SDS011;13414;44.534;18.700;2022-10-28T01:44:05;28.40;;;19.02;;
25511;SDS011;13414;44.534;18.700;2022-10-28T01:46:39;29.45;;;19.33;;
25511;SDS011;13414;44.534;18.700;2022-10-28T01:49:11;29.55;;;17.73;;
25511;SDS011;13414;44.534;18.700;2022-10-28T01:51:44;37.28;;;22.67;;
25511;SDS011;13414;44.534;18.700;2022-10-28T01:54:15;38.35;;;23.35;;
25511;SDS011;13414;44.534;18.700;2022-10-28T01:56:46;30.55;;;20.10;;
25511;SDS011;13414;44.534;18.700;2022-10-28T01:59:16;32.38;;;21.05;;
25511;SDS011;13414;44.534;18.700;2022-10-28T02:01:46;27.90;;;18.83;;
25511;SDS011;13414;44.534;18.700;2022-10-28T02:04:16;27.30;;;18.50;;
25511;SDS011;13414;44.534;18.700;2022-10-28T02:06:43;26.02;;;18.42;;
25511;SDS011;13414;44.534;18.700;2022-10-28T02:09:15;26.65;;;19.05;;
25511;SDS011;13414;44.534;18.700;2022-10-28T02:18:05;31.67;;;18.48;;
25511;SDS011;13414;44.534;18.700;2022-10-28T02:20:44;29.58;;;18.38;;
25511;SDS011;13414;44.534;18.700;2022-10-28T02:23:20;26.30;;;16.92;;
25511;SDS011;13414;44.534;18.700;2022-10-28T02:25:54;26.58;;;16.20;;
25511;SDS011;13414;44.534;18.700;2022-10-28T02:28:29;21.80;;;12.80;;
25511;SDS011;13414;44.534;18.700;2022-10-28T02:31:05;21.23;;;13.98;;
25511;SDS011;13414;44.534;18.700;2022-10-28T02:33:37;24.15;;;16.20;;
25511;SDS011;13414;44.534;18.700;2022-10-28T02:36:07;26.00;;;16.38;;
25511;SDS011;13414;44.534;18.700;2022-10-28T02:38:38;25.90;;;14.48;;
25511;SDS011;13414;44.534;18.700;2022-10-28T02:41:14;26.63;;;14.23;;
25511;SDS011;13414;44.534;18.700;2022-10-28T02:43:44;23.98;;;16.30;;
25511;SDS011;13414;44.534;18.700;2022-10-28T02:46:15;26.42;;;18.08;;
25511;SDS011;13414;44.534;18.700;2022-10-28T02:48:45;31.00;;;19.45;;
25511;SDS011;13414;44.534;18.700;2022-10-28T02:51:17;28.95;;;17.50;;
25511;SDS011;13414;44.534;18.700;2022-10-28T02:53:51;29.38;;;18.52;;
25511;SDS011;13414;44.534;18.700;2022-10-28T02:56:22;31.67;;;18.75;;
25511;SDS011;13414;44.534;18.700;2022-10-28T02:58:49;30.52;;;17.67;;
25511;SDS011;13414;44.534;18.700;2022-10-28T03:01:17;36.58;;;22.08;;
25511;SDS011;13414;44.534;18.700;2022-10-28T03:03:44;41.03;;;24.75;;
25511;SDS011;13414;44.534;18.700;2022-10-28T03:06:12;47.00;;;25.92;;
25511;SDS011;13414;44.534;18.700;2022-10-28T03:08:41;37.15;;;24.70;;
25511;SDS011;13414;44.534;18.700;2022-10-28T03:11:08;33.60;;;22.67;;
25511;SDS011;13414;44.534;18.700;2022-10-28T03:13:36;34.53;;;20.50;;
25511;SDS011;13414;44.534;18.700;2022-10-28T03:16:03;35.38;;;20.30;;
25511;SDS011;13414;44.534;18.700;2022-10-28T03:18:31;32.00;;;19.95;;
25511;SDS011;13414;44.534;18.700;2022-10-28T03:20:58;26.08;;;18.23;;
25511;SDS011;13414;44.534;18.700;2022-10-28T03:23:26;35.28;;;20.80;;
25511;SDS011;13414;44.534;18.700;2022-10-28T03:25:54;28.23;;;19.80;;
25511;SDS011;13414;44.534;18.700;2022-10-28T03:28:22;31.70;;;19.65;;
25511;SDS011;13414;44.534;18.700;2022-10-28T03:30:49;33.63;;;20.55;;
25511;SDS011;13414;44.534;18.700;2022-10-28T03:33:17;32.08;;;21.00;;
25511;SDS011;13414;44.534;18.700;2022-10-28T03:35:44;30.77;;;19.35;;
25511;SDS011;13414;44.534;18.700;2022-10-28T03:38:12;25.63;;;18.63;;
25511;SDS011;13414;44.534;18.700;2022-10-28T03:40:40;28.83;;;18.08;;
25511;SDS011;13414;44.534;18.700;2022-10-28T03:43:09;26.83;;;17.25;;
25511;SDS011;13414;44.534;18.700;2022-10-28T03:45:36;32.22;;;19.55;;
25511;SDS011;13414;44.534;18.700;2022-10-28T03:48:03;32.75;;;18.75;;
25511;SDS011;13414;44.534;18.700;2022-10-28T03:50:31;33.08;;;20.08;;
25511;SDS011;13414;44.534;18.700;2022-10-28T03:52:58;31.05;;;19.30;;
25511;SDS011;13414;44.534;18.700;2022-10-28T03:55:25;31.17;;;19.60;;
25511;SDS011;13414;44.534;18.700;2022-10-28T03:57:53;30.92;;;20.70;;
25511;SDS011;13414;44.534;18.700;2022-10-28T04:00:21;29.25;;;19.02;;
25511;SDS011;13414;44.534;18.700;2022-10-28T04:02:48;34.75;;;23.00;;
25511;SDS011;13414;44.534;18.700;2022-10-28T04:05:16;43.20;;;25.27;;
25511;SDS011;13414;44.534;18.700;2022-10-28T04:07:43;40.28;;;25.08;;
25511;SDS011;13414;44.534;18.700;2022-10-28T04:10:11;43.05;;;26.13;;
25511;SDS011;13414;44.534;18.700;2022-10-28T04:12:39;37.80;;;23.65;;
25511;SDS011;13414;44.534;18.700;2022-10-28T04:15:06;39.53;;;23.60;;
25511;SDS011;13414;44.534;18.700;2022-10-28T04:17:35;32.10;;;21.05;;
25511;SDS011;13414;44.534;18.700;2022-10-28T04:20:03;34.63;;;19.95;;
25511;SDS011;13414;44.534;18.700;2022-10-28T04:22:30;28.55;;;21.13;;
25511;SDS011;13414;44.534;18.700;2022-10-28T04:24:59;34.45;;;23.98;;
25511;SDS011;13414;44.534;18.700;2022-10-28T04:27:27;37.78;;;24.40;;
25511;SDS011;13414;44.534;18.700;2022-10-28T04:29:54;35.58;;;22.67;;
25511;SDS011;13414;44.534;18.700;2022-10-28T04:32:21;37.70;;;23.23;;
25511;SDS011;13414;44.534;18.700;2022-10-28T04:34:50;39.88;;;23.13;;
25511;SDS011;13414;44.534;18.700;2022-10-28T04:37:18;38.85;;;23.40;;
25511;SDS011;13414;44.534;18.700;2022-10-28T04:39:46;36.88;;;22.73;;
25511;SDS011;13414;44.534;18.700;2022-10-28T04:42:13;41.97;;;24.50;;
25511;SDS011;13414;44.534;18.700;2022-10-28T04:44:40;38.53;;;24.30;;
25511;SDS011;13414;44.534;18.700;2022-10-28T04:47:08;38.13;;;25.35;;
25511;SDS011;13414;44.534;18.700;2022-10-28T04:49:36;41.75;;;26.65;;
25511;SDS011;13414;44.534;18.700;2022-10-28T04:52:04;44.17;;;26.23;;
25511;SDS011;13414;44.534;18.700;2022-10-28T04:54:31;40.97;;;27.02;;
25511;SDS011;13414;44.534;18.700;2022-10-28T04:56:59;48.22;;;26.60;;
25511;SDS011;13414;44.534;18.700;2022-10-28T04:59:26;61.40;;;27.40;;
25511;SDS011;13414;44.534;18.700;2022-10-28T05:01:53;44.22;;;25.55;;
25511;SDS011;13414;44.534;18.700;2022-10-28T05:04:21;45.95;;;24.63;;
25511;SDS011;13414;44.534;18.700;2022-10-28T05:06:48;42.60;;;24.98;;
25511;SDS011;13414;44.534;18.700;2022-10-28T05:09:17;46.53;;;25.50;;
25511;SDS011;13414;44.534;18.700;2022-10-28T05:11:44;39.20;;;25.30;;
25511;SDS011;13414;44.534;18.700;2022-10-28T05:14:11;42.40;;;25.67;;
25511;SDS011;13414;44.534;18.700;2022-10-28T05:16:39;47.75;;;27.15;;
25511;SDS011;13414;44.534;18.700;2022-10-28T05:19:06;42.10;;;25.48;;
25511;SDS011;13414;44.534;18.700;2022-10-28T05:21:33;39.60;;;25.55;;
25511;SDS011;13414;44.534;18.700;2022-10-28T05:24:00;46.58;;;28.48;;
25511;SDS011;13414;44.534;18.700;2022-10-28T05:26:31;50.35;;;30.42;;
25511;SDS011;13414;44.534;18.700;2022-10-28T05:28:58;52.20;;;31.25;;
25511;SDS011;13414;44.534;18.700;2022-10-28T05:31:25;50.00;;;28.17;;
25511;SDS011;13414;44.534;18.700;2022-10-28T05:33:53;52.60;;;28.45;;
25511;SDS011;13414;44.534;18.700;2022-10-28T05:36:20;45.55;;;27.05;;
25511;SDS011;13414;44.534;18.700;2022-10-28T05:38:48;47.50;;;28.27;;
25511;SDS011;13414;44.534;18.700;2022-10-28T05:41:15;46.78;;;27.10;;
25511;SDS011;13414;44.534;18.700;2022-10-28T05:43:43;53.97;;;27.88;;
25511;SDS011;13414;44.534;18.700;2022-10-28T05:46:11;52.78;;;30.90;;
25511;SDS011;13414;44.534;18.700;2022-10-28T05:48:39;55.30;;;35.20;;
25511;SDS011;13414;44.534;18.700;2022-10-28T05:51:06;62.35;;;35.15;;
25511;SDS011;13414;44.534;18.700;2022-10-28T05:53:33;67.93;;;35.53;;
25511;SDS011;13414;44.534;18.700;2022-10-28T05:56:00;56.78;;;32.05;;
25511;SDS011;13414;44.534;18.700;2022-10-28T05:58:27;68.32;;;40.33;;
25511;SDS011;13414;44.534;18.700;2022-10-28T06:00:56;57.67;;;34.92;;
25511;SDS011;13414;44.534;18.700;2022-10-28T06:03:23;55.17;;;31.45;;
25511;SDS011;13414;44.534;18.700;2022-10-28T06:05:50;56.35;;;29.90;;
25511;SDS011;13414;44.534;18.700;2022-10-28T06:08:19;52.65;;;28.00;;
25511;SDS011;13414;44.534;18.700;2022-10-28T06:10:48;70.05;;;37.25;;
25511;SDS011;13414;44.534;18.700;2022-10-28T06:13:17;66.43;;;36.55;;
25511;SDS011;13414;44.534;18.700;2022-10-28T06:15:49;66.03;;;36.15;;
25511;SDS011;13414;44.534;18.700;2022-10-28T06:18:18;63.95;;;36.17;;
25511;SDS011;13414;44.534;18.700;2022-10-28T06:20:49;69.80;;;34.63;;
25511;SDS011;13414;44.534;18.700;2022-10-28T06:23:18;44.80;;;26.88;;
25511;SDS011;13414;44.534;18.700;2022-10-28T06:25:45;42.30;;;24.73;;
25511;SDS011;13414;44.534;18.700;2022-10-28T06:28:13;33.15;;;21.75;;
25511;SDS011;13414;44.534;18.700;2022-10-28T06:30:41;31.40;;;21.23;;
25511;SDS011;13414;44.534;18.700;2022-10-28T06:33:08;39.35;;;23.17;;
25511;SDS011;13414;44.534;18.700;2022-10-28T06:35:36;39.72;;;22.95;;
25511;SDS011;13414;44.534;18.700;2022-10-28T06:38:03;37.45;;;24.50;;
25511;SDS011;13414;44.534;18.700;2022-10-28T06:40:31;40.40;;;23.67;;
25511;SDS011;13414;44.534;18.700;2022-10-28T06:42:58;41.75;;;24.77;;
25511;SDS011;13414;44.534;18.700;2022-10-28T06:45:26;36.58;;;23.52;;
25511;SDS011;13414;44.534;18.700;2022-10-28T06:47:54;38.63;;;21.90;;
25511;SDS011;13414;44.534;18.700;2022-10-28T06:50:23;34.38;;;22.65;;
25511;SDS011;13414;44.534;18.700;2022-10-28T06:52:55;34.75;;;22.02;;
25511;SDS011;13414;44.534;18.700;2022-10-28T06:55:22;36.20;;;21.95;;
25511;SDS011;13414;44.534;18.700;2022-10-28T06:57:49;39.38;;;23.55;;
25511;SDS011;13414;44.534;18.700;2022-10-28T07:00:17;37.30;;;24.65;;
25511;SDS011;13414;44.534;18.700;2022-10-28T07:02:48;33.25;;;23.73;;
25511;SDS011;13414;44.534;18.700;2022-10-28T07:05:16;40.85;;;24.60;;
25511;SDS011;13414;44.534;18.700;2022-10-28T07:07:44;40.10;;;26.65;;
25511;SDS011;13414;44.534;18.700;2022-10-28T07:10:12;39.25;;;24.60;;
25511;SDS011;13414;44.534;18.700;2022-10-28T07:12:40;40.58;;;24.38;;
25511;SDS011;13414;44.534;18.700;2022-10-28T07:15:08;35.10;;;24.13;;
25511;SDS011;13414;44.534;18.700;2022-10-28T07:17:36;36.45;;;23.77;;
25511;SDS011;13414;44.534;18.700;2022-10-28T07:20:04;35.72;;;23.13;;
25511;SDS011;13414;44.534;18.700;2022-10-28T07:22:31;38.42;;;24.58;;
25511;SDS011;13414;44.534;18.700;2022-10-28T07:24:58;40.58;;;24.58;;
25511;SDS011;13414;44.534;18.700;2022-10-28T07:27:27;39.60;;;26.52;;
25511;SDS011;13414;44.534;18.700;2022-10-28T07:29:54;39.88;;;23.75;;
25511;SDS011;13414;44.534;18.700;2022-10-28T07:32:21;38.42;;;24.38;;
25511;SDS011;13414;44.534;18.700;2022-10-28T07:34:49;44.35;;;25.25;;
25511;SDS011;13414;44.534;18.700;2022-10-28T07:37:16;37.60;;;24.80;;
25511;SDS011;13414;44.534;18.700;2022-10-28T07:39:45;47.58;;;27.23;;
25511;SDS011;13414;44.534;18.700;2022-10-28T07:42:12;37.80;;;25.90;;
25511;SDS011;13414;44.534;18.700;2022-10-28T07:44:41;41.22;;;26.10;;
25511;SDS011;13414;44.534;18.700;2022-10-28T07:47:09;39.22;;;24.80;;
25511;SDS011;13414;44.534;18.700;2022-10-28T07:49:36;40.13;;;25.45;;
25511;SDS011;13414;44.534;18.700;2022-10-28T07:52:03;36.83;;;24.42;;
25511;SDS011;13414;44.534;18.700;2022-10-28T07:54:33;38.78;;;26.85;;
25511;SDS011;13414;44.534;18.700;2022-10-28T07:57:00;38.38;;;25.52;;
25511;SDS011;13414;44.534;18.700;2022-10-28T07:59:28;30.85;;;22.40;;
25511;SDS011;13414;44.534;18.700;2022-10-28T08:01:57;39.90;;;20.73;;
25511;SDS011;13414;44.534;18.700;2022-10-28T08:04:24;30.55;;;20.25;;
25511;SDS011;13414;44.534;18.700;2022-10-28T08:06:54;29.35;;;19.17;;
25511;SDS011;13414;44.534;18.700;2022-10-28T08:09:21;31.85;;;19.67;;
25511;SDS011;13414;44.534;18.700;2022-10-28T08:11:48;29.17;;;19.83;;
25511;SDS011;13414;44.534;18.700;2022-10-28T08:14:15;37.50;;;22.95;;
25511;SDS011;13414;44.534;18.700;2022-10-28T08:16:44;31.80;;;19.13;;
25511;SDS011;13414;44.534;18.700;2022-10-28T08:19:13;30.70;;;19.70;;
25511;SDS011;13414;44.534;18.700;2022-10-28T08:21:40;34.00;;;22.00;;
25511;SDS011;13414;44.534;18.700;2022-10-28T08:24:07;35.25;;;22.40;;
25511;SDS011;13414;44.534;18.700;2022-10-28T08:26:35;36.95;;;22.58;;
25511;SDS011;13414;44.534;18.700;2022-10-28T08:29:03;35.05;;;22.90;;
25511;SDS011;13414;44.534;18.700;2022-10-28T08:31:30;34.72;;;23.58;;
25511;SDS011;13414;44.534;18.700;2022-10-28T08:33:59;33.95;;;22.85;;
25511;SDS011;13414;44.534;18.700;2022-10-28T08:36:28;32.63;;;22.35;;
25511;SDS011;13414;44.534;18.700;2022-10-28T08:38:55;31.42;;;23.58;;
25511;SDS011;13414;44.534;18.700;2022-10-28T08:41:27;38.83;;;24.80;;
25511;SDS011;13414;44.534;18.700;2022-10-28T08:47:04;39.50;;;25.58;;
25511;SDS011;13414;44.534;18.700;2022-10-28T08:49:41;35.95;;;25.95;;
25511;SDS011;13414;44.534;18.700;2022-10-28T08:52:15;43.60;;;27.35;;
25511;SDS011;13414;44.534;18.700;2022-10-28T08:54:51;34.83;;;23.17;;
25511;SDS011;13414;44.534;18.700;2022-10-28T08:57:24;28.25;;;19.88;;
25511;SDS011;13414;44.534;18.700;2022-10-28T09:00:00;30.95;;;19.23;;
25511;SDS011;13414;44.534;18.700;2022-10-28T09:02:32;27.17;;;17.77;;
25511;SDS011;13414;44.534;18.700;2022-10-28T09:05:14;25.85;;;17.35;;
25511;SDS011;13414;44.534;18.700;2022-10-28T09:07:48;29.33;;;17.80;;
25511;SDS011;13414;44.534;18.700;2022-10-28T09:10:16;23.42;;;14.80;;
25511;SDS011;13414;44.534;18.700;2022-10-28T09:12:48;28.48;;;18.30;;
25511;SDS011;13414;44.534;18.700;2022-10-28T09:15:26;31.60;;;16.48;;
25511;SDS011;13414;44.534;18.700;2022-10-28T09:18:01;23.15;;;16.27;;
25511;SDS011;13414;44.534;18.700;2022-10-28T09:20:41;27.58;;;17.42;;
25511;SDS011;13414;44.534;18.700;2022-10-28T09:23:20;24.45;;;17.23;;
25511;SDS011;13414;44.534;18.700;2022-10-28T09:25:53;24.58;;;17.02;;
25511;SDS011;13414;44.534;18.700;2022-10-28T09:28:45;26.13;;;17.67;;
25511;SDS011;13414;44.534;18.700;2022-10-28T09:31:23;31.73;;;19.98;;
25511;SDS011;13414;44.534;18.700;2022-10-28T09:34:01;31.33;;;18.02;;
25511;SDS011;13414;44.534;18.700;2022-10-28T09:36:37;26.88;;;17.38;;
25511;SDS011;13414;44.534;18.700;2022-10-28T09:39:10;47.47;;;30.60;;
25511;SDS011;13414;44.534;18.700;2022-10-28T09:41:41;46.22;;;26.00;;
25511;SDS011;13414;44.534;18.700;2022-10-28T09:44:12;27.63;;;19.40;;
25511;SDS011;13414;44.534;18.700;2022-10-28T09:46:44;24.25;;;15.88;;
25511;SDS011;13414;44.534;18.700;2022-10-28T09:49:15;24.23;;;15.65;;
25511;SDS011;13414;44.534;18.700;2022-10-28T09:51:46;32.10;;;17.17;;
25511;SDS011;13414;44.534;18.700;2022-10-28T09:54:20;24.45;;;16.65;;
25511;SDS011;13414;44.534;18.700;2022-10-28T09:56:53;26.42;;;16.40;;
25511;SDS011;13414;44.534;18.700;2022-10-28T09:59:20;22.52;;;15.63;;
25511;SDS011;13414;44.534;18.700;2022-10-28T10:01:47;20.40;;;15.73;;
25511;SDS011;13414;44.534;18.700;2022-10-28T10:04:16;28.42;;;18.83;;
25511;SDS011;13414;44.534;18.700;2022-10-28T10:06:48;32.50;;;20.00;;
25511;SDS011;13414;44.534;18.700;2022-10-28T10:09:20;31.00;;;20.67;;
25511;SDS011;13414;44.534;18.700;2022-10-28T10:11:51;28.88;;;18.38;;
25511;SDS011;13414;44.534;18.700;2022-10-28T10:14:22;27.10;;;18.42;;
25511;SDS011;13414;44.534;18.700;2022-10-28T10:16:54;30.70;;;21.30;;
25511;SDS011;13414;44.534;18.700;2022-10-28T10:19:24;29.60;;;17.20;;
25511;SDS011;13414;44.534;18.700;2022-10-28T10:21:52;29.70;;;18.90;;
25511;SDS011;13414;44.534;18.700;2022-10-28T10:24:23;25.73;;;16.30;;
25511;SDS011;13414;44.534;18.700;2022-10-28T10:26:51;25.13;;;16.42;;
25511;SDS011;13414;44.534;18.700;2022-10-28T10:29:19;27.48;;;15.60;;
25511;SDS011;13414;44.534;18.700;2022-10-28T10:31:47;24.75;;;16.38;;
25511;SDS011;13414;44.534;18.700;2022-10-28T10:34:30;24.00;;;15.40;;
25511;SDS011;13414;44.534;18.700;2022-10-28T10:36:58;30.02;;;16.27;;
25511;SDS011;13414;44.534;18.700;2022-10-28T10:39:30;25.60;;;18.08;;
25511;SDS011;13414;44.534;18.700;2022-10-28T10:42:01;26.20;;;19.58;;
25511;SDS011;13414;44.534;18.700;2022-10-28T10:44:29;33.95;;;21.92;;
25511;SDS011;13414;44.534;18.700;2022-10-28T10:49:45;25.92;;;16.50;;
25511;SDS011;13414;44.534;18.700;2022-10-28T10:52:15;29.83;;;17.90;;
25511;SDS011;13414;44.534;18.700;2022-10-28T10:54:55;25.90;;;15.35;;
25511;SDS011;13414;44.534;18.700;2022-10-28T10:57:25;33.30;;;18.42;;
25511;SDS011;13414;44.534;18.700;2022-10-28T10:59:53;28.23;;;16.25;;
25511;SDS011;13414;44.534;18.700;2022-10-28T11:02:22;25.67;;;14.48;;
25511;SDS011;13414;44.534;18.700;2022-10-28T11:04:52;24.35;;;13.23;;
25511;SDS011;13414;44.534;18.700;2022-10-28T11:07:22;19.30;;;12.35;;
25511;SDS011;13414;44.534;18.700;2022-10-28T11:09:51;24.73;;;13.10;;
25511;SDS011;13414;44.534;18.700;2022-10-28T11:12:23;15.52;;;10.02;;
25511;SDS011;13414;44.534;18.700;2022-10-28T11:14:53;15.20;;;9.23;;
25511;SDS011;13414;44.534;18.700;2022-10-28T11:17:24;19.40;;;11.70;;
25511;SDS011;13414;44.534;18.700;2022-10-28T11:19:53;19.65;;;10.38;;
25511;SDS011;13414;44.534;18.700;2022-10-28T11:22:31;15.93;;;10.20;;
25511;SDS011;13414;44.534;18.700;2022-10-28T11:25:17;15.98;;;9.80;;
25511;SDS011;13414;44.534;18.700;2022-10-28T11:27:54;16.40;;;9.35;;
25511;SDS011;13414;44.534;18.700;2022-10-28T11:30:31;14.00;;;8.18;;
25511;SDS011;13414;44.534;18.700;2022-10-28T11:33:07;20.98;;;10.93;;
25511;SDS011;13414;44.534;18.700;2022-10-28T11:35:45;16.40;;;8.32;;
25511;SDS011;13414;44.534;18.700;2022-10-28T11:38:22;15.32;;;8.13;;
25511;SDS011;13414;44.534;18.700;2022-10-28T11:41:11;14.00;;;7.75;;
25511;SDS011;13414;44.534;18.700;2022-10-28T11:43:48;19.48;;;8.45;;
25511;SDS011;13414;44.534;18.700;2022-10-28T11:46:19;12.07;;;7.07;;
25511;SDS011;13414;44.534;18.700;2022-10-28T11:48:59;10.40;;;6.35;;
25511;SDS011;13414;44.534;18.700;2022-10-28T11:51:38;12.23;;;6.25;;
25511;SDS011;13414;44.534;18.700;2022-10-28T11:57:13;11.40;;;7.63;;
25511;SDS011;13414;44.534;18.700;2022-10-28T12:02:59;16.85;;;8.80;;
25511;SDS011;13414;44.534;18.700;2022-10-28T12:05:42;11.90;;;5.93;;
25511;SDS011;13414;44.534;18.700;2022-10-28T12:08:19;14.50;;;6.47;;
25511;SDS011;13414;44.534;18.700;2022-10-28T12:10:59;14.20;;;8.90;;
25511;SDS011;13414;44.534;18.700;2022-10-28T12:13:39;12.40;;;7.72;;
25511;SDS011;13414;44.534;18.700;2022-10-28T12:16:14;11.70;;;5.95;;
25511;SDS011;13414;44.534;18.700;2022-10-28T12:18:49;10.90;;;6.15;;
25511;SDS011;13414;44.534;18.700;2022-10-28T12:21:22;24.52;;;17.13;;
25511;SDS011;13414;44.534;18.700;2022-10-28T12:23:53;9.93;;;6.28;;
25511;SDS011;13414;44.534;18.700;2022-10-28T12:26:33;8.18;;;5.38;;
25511;SDS011;13414;44.534;18.700;2022-10-28T12:29:07;11.40;;;4.85;;
25511;SDS011;13414;44.534;18.700;2022-10-28T12:31:44;13.18;;;6.88;;
25511;SDS011;13414;44.534;18.700;2022-10-28T12:34:14;9.95;;;5.78;;
25511;SDS011;13414;44.534;18.700;2022-10-28T12:36:46;10.85;;;5.70;;
25511;SDS011;13414;44.534;18.700;2022-10-28T12:39:17;13.25;;;5.88;;
25511;SDS011;13414;44.534;18.700;2022-10-28T12:41:51;10.05;;;5.53;;
25511;SDS011;13414;44.534;18.700;2022-10-28T12:44:24;19.58;;;6.00;;
25511;SDS011;13414;44.534;18.700;2022-10-28T12:46:56;8.52;;;4.80;;
25511;SDS011;13414;44.534;18.700;2022-10-28T12:49:34;9.38;;;5.18;;
25511;SDS011;13414;44.534;18.700;2022-10-28T12:52:12;7.57;;;4.50;;
25511;SDS011;13414;44.534;18.700;2022-10-28T12:54:50;9.63;;;5.30;;
25511;SDS011;13414;44.534;18.700;2022-10-28T12:57:22;10.75;;;6.10;;
25511;SDS011;13414;44.534;18.700;2022-10-28T12:59:52;8.40;;;5.40;;
25511;SDS011;13414;44.534;18.700;2022-10-28T13:02:25;11.57;;;5.18;;
25511;SDS011;13414;44.534;18.700;2022-10-28T13:04:56;9.50;;;6.05;;
25511;SDS011;13414;44.534;18.700;2022-10-28T13:07:32;24.98;;;16.10;;
25511;SDS011;13414;44.534;18.700;2022-10-28T13:10:14;14.27;;;6.68;;
25511;SDS011;13414;44.534;18.700;2022-10-28T13:12:52;11.80;;;5.20;;
25511;SDS011;13414;44.534;18.700;2022-10-28T13:15:38;16.42;;;6.85;;
25511;SDS011;13414;44.534;18.700;2022-10-28T13:18:39;9.98;;;5.93;;
25511;SDS011;13414;44.534;18.700;2022-10-28T13:21:30;14.38;;;6.50;;
25511;SDS011;13414;44.534;18.700;2022-10-28T13:24:16;10.07;;;5.20;;
25511;SDS011;13414;44.534;18.700;2022-10-28T13:26:49;13.93;;;6.90;;
25511;SDS011;13414;44.534;18.700;2022-10-28T13:29:18;12.40;;;6.63;;
25511;SDS011;13414;44.534;18.700;2022-10-28T13:31:49;18.38;;;9.85;;
25511;SDS011;13414;44.534;18.700;2022-10-28T13:34:18;18.13;;;11.77;;
25511;SDS011;13414;44.534;18.700;2022-10-28T13:36:53;14.07;;;7.50;;
25511;SDS011;13414;44.534;18.700;2022-10-28T13:39:24;20.38;;;11.32;;
25511;SDS011;13414;44.534;18.700;2022-10-28T13:44:58;10.52;;;6.22;;
25511;SDS011;13414;44.534;18.700;2022-10-28T13:47:29;11.77;;;6.72;;
25511;SDS011;13414;44.534;18.700;2022-10-28T13:59:16;11.55;;;5.63;;
25511;SDS011;13414;44.534;18.700;2022-10-28T14:02:02;12.75;;;7.00;;
25511;SDS011;13414;44.534;18.700;2022-10-28T14:04:42;11.48;;;7.28;;
25511;SDS011;13414;44.534;18.700;2022-10-28T14:07:23;9.73;;;7.05;;
25511;SDS011;13414;44.534;18.700;2022-10-28T14:09:56;12.82;;;7.40;;
25511;SDS011;13414;44.534;18.700;2022-10-28T14:12:39;12.90;;;7.30;;
25511;SDS011;13414;44.534;18.700;2022-10-28T14:15:17;14.45;;;8.32;;
25511;SDS011;13414;44.534;18.700;2022-10-28T14:17:47;13.23;;;7.35;;
25511;SDS011;13414;44.534;18.700;2022-10-28T14:20:25;10.95;;;6.80;;
25511;SDS011;13414;44.534;18.700;2022-10-28T14:22:56;12.27;;;7.22;;
25511;SDS011;13414;44.534;18.700;2022-10-28T14:34:38;13.27;;;7.40;;
25511;SDS011;13414;44.534;18.700;2022-10-28T14:40:18;15.48;;;8.05;;
25511;SDS011;13414;44.534;18.700;2022-10-28T14:43:00;12.73;;;7.93;;
25511;SDS011;13414;44.534;18.700;2022-10-28T14:45:38;16.77;;;11.30;;
25511;SDS011;13414;44.534;18.700;2022-10-28T14:51:13;20.70;;;10.65;;
25511;SDS011;13414;44.534;18.700;2022-10-28T14:53:44;19.17;;;10.48;;
25511;SDS011;13414;44.534;18.700;2022-10-28T14:56:16;14.60;;;9.27;;
25511;SDS011;13414;44.534;18.700;2022-10-28T14:58:46;18.90;;;11.15;;
25511;SDS011;13414;44.534;18.700;2022-10-28T15:01:22;16.77;;;9.00;;
25511;SDS011;13414;44.534;18.700;2022-10-28T15:03:56;18.05;;;10.20;;
25511;SDS011;13414;44.534;18.700;2022-10-28T15:06:31;16.33;;;9.50;;
25511;SDS011;13414;44.534;18.700;2022-10-28T15:09:04;17.30;;;10.70;;
25511;SDS011;13414;44.534;18.700;2022-10-28T15:11:39;21.25;;;10.05;;
25511;SDS011;13414;44.534;18.700;2022-10-28T15:14:13;21.55;;;14.15;;
25511;SDS011;13414;44.534;18.700;2022-10-28T15:16:48;25.90;;;14.52;;
25511;SDS011;13414;44.534;18.700;2022-10-28T15:19:16;18.52;;;11.73;;
25511;SDS011;13414;44.534;18.700;2022-10-28T15:21:58;21.70;;;12.98;;
25511;SDS011;13414;44.534;18.700;2022-10-28T15:24:31;28.05;;;16.38;;
25511;SDS011;13414;44.534;18.700;2022-10-28T15:26:59;29.50;;;19.75;;
25511;SDS011;13414;44.534;18.700;2022-10-28T15:29:27;29.50;;;21.10;;